sensor_id;sensor_type;location;lat;lon;timestamp;P1;durP1;ratioP1;P2;durP2;ratioP2
8183;SDS011;4133;48.752;9.088;2022-12-24T00:01:54;5.43;;;1.50;;
8183;SDS011;4133;48.752;9.088;2022-12-24T00:04:20;4.53;;;1.47;;
8183;SDS011;4133;48.752;9.088;2022-12-24T00:06:46;6.10;;;1.73;;
8183;SDS011;4133;48.752;9.088;2022-12-24T00:09:12;3.43;;;1.33;;
8183;SDS011;4133;48.752;9.088;2022-12-24T00:11:38;4.00;;;1.40;;
8183;SDS011;4133;48.752;9.088;2022-12-24T00:14:04;5.60;;;1.40;;
8183;SDS011;4133;48.752;9.088;2022-12-24T00:16:30;2.87;;;1.60;;
8183;SDS011;4133;48.752;9.088;2022-12-24T00:18:56;5.40;;;1.30;;
8183;SDS011;4133;48.752;9.088;2022-12-24T00:21:22;8.37;;;1.90;;
8183;SDS011;4133;48.752;9.088;2022-12-24T00:23:48;5.23;;;1.63;;
8183;SDS011;4133;48.752;9.088;2022-12-24T00:26:14;5.77;;;1.50;;
8183;SDS011;4133;48.752;9.088;2022-12-24T00:28:42;6.30;;;1.53;;
8183;SDS011;4133;48.752;9.088;2022-12-24T00:31:15;4.97;;;1.40;;
8183;SDS011;4133;48.752;9.088;2022-12-24T00:33:42;6.87;;;1.40;;
8183;SDS011;4133;48.752;9.088;2022-12-24T00:36:08;8.10;;;1.93;;
8183;SDS011;4133;48.752;9.088;2022-12-24T00:38:34;3.47;;;1.40;;
8183;SDS011;4133;48.752;9.088;2022-12-24T00:41:05;4.27;;;1.33;;
8183;SDS011;4133;48.752;9.088;2022-12-24T00:43:48;6.57;;;1.87;;
8183;SDS011;4133;48.752;9.088;2022-12-24T00:46:14;5.97;;;1.53;;
8183;SDS011;4133;48.752;9.088;2022-12-24T00:48:40;3.53;;;1.27;;
8183;SDS011;4133;48.752;9.088;2022-12-24T00:51:06;4.47;;;1.50;;
8183;SDS011;4133;48.752;9.088;2022-12-24T00:53:31;5.03;;;1.50;;
8183;SDS011;4133;48.752;9.088;2022-12-24T00:55:57;6.30;;;1.40;;
8183;SDS011;4133;48.752;9.088;2022-12-24T00:58:23;3.50;;;1.83;;
8183;SDS011;4133;48.752;9.088;2022-12-24T01:00:49;7.40;;;1.60;;
8183;SDS011;4133;48.752;9.088;2022-12-24T01:03:15;4.97;;;1.60;;
8183;SDS011;4133;48.752;9.088;2022-12-24T01:05:41;5.73;;;1.43;;
8183;SDS011;4133;48.752;9.088;2022-12-24T01:08:07;6.53;;;1.50;;
8183;SDS011;4133;48.752;9.088;2022-12-24T01:10:33;5.20;;;1.50;;
8183;SDS011;4133;48.752;9.088;2022-12-24T01:13:00;4.93;;;1.50;;
8183;SDS011;4133;48.752;9.088;2022-12-24T01:15:26;3.53;;;1.47;;
8183;SDS011;4133;48.752;9.088;2022-12-24T01:17:53;4.77;;;1.60;;
8183;SDS011;4133;48.752;9.088;2022-12-24T01:20:19;4.80;;;1.53;;
8183;SDS011;4133;48.752;9.088;2022-12-24T01:22:45;7.43;;;1.70;;
8183;SDS011;4133;48.752;9.088;2022-12-24T01:25:11;4.00;;;1.57;;
8183;SDS011;4133;48.752;9.088;2022-12-24T01:27:39;3.60;;;1.30;;
8183;SDS011;4133;48.752;9.088;2022-12-24T01:30:06;6.70;;;1.60;;
8183;SDS011;4133;48.752;9.088;2022-12-24T01:32:32;6.30;;;1.47;;
8183;SDS011;4133;48.752;9.088;2022-12-24T01:34:58;4.47;;;1.60;;
8183;SDS011;4133;48.752;9.088;2022-12-24T01:37:24;4.17;;;1.33;;
8183;SDS011;4133;48.752;9.088;2022-12-24T01:39:50;5.60;;;1.70;;
8183;SDS011;4133;48.752;9.088;2022-12-24T01:42:37;6.37;;;1.60;;
8183;SDS011;4133;48.752;9.088;2022-12-24T01:47:57;6.57;;;1.70;;
8183;SDS011;4133;48.752;9.088;2022-12-24T01:50:23;2.53;;;1.40;;
8183;SDS011;4133;48.752;9.088;2022-12-24T01:52:49;5.00;;;1.90;;
8183;SDS011;4133;48.752;9.088;2022-12-24T01:55:15;5.67;;;1.50;;
8183;SDS011;4133;48.752;9.088;2022-12-24T01:57:48;10.17;;;1.83;;
8183;SDS011;4133;48.752;9.088;2022-12-24T02:00:15;5.43;;;1.93;;
8183;SDS011;4133;48.752;9.088;2022-12-24T02:02:42;9.60;;;1.87;;
8183;SDS011;4133;48.752;9.088;2022-12-24T02:05:10;4.00;;;1.50;;
8183;SDS011;4133;48.752;9.088;2022-12-24T02:07:38;4.93;;;1.50;;
8183;SDS011;4133;48.752;9.088;2022-12-24T02:10:06;8.03;;;1.63;;
8183;SDS011;4133;48.752;9.088;2022-12-24T02:12:33;6.77;;;1.80;;
8183;SDS011;4133;48.752;9.088;2022-12-24T02:15:00;8.13;;;2.13;;
8183;SDS011;4133;48.752;9.088;2022-12-24T02:17:44;8.40;;;1.80;;
8183;SDS011;4133;48.752;9.088;2022-12-24T02:31:02;7.17;;;1.70;;
8183;SDS011;4133;48.752;9.088;2022-12-24T02:33:31;8.80;;;1.77;;
8183;SDS011;4133;48.752;9.088;2022-12-24T02:36:01;10.07;;;2.03;;
8183;SDS011;4133;48.752;9.088;2022-12-24T02:38:31;6.87;;;1.90;;
8183;SDS011;4133;48.752;9.088;2022-12-24T02:41:02;6.00;;;1.87;;
8183;SDS011;4133;48.752;9.088;2022-12-24T02:43:33;6.33;;;1.80;;
8183;SDS011;4133;48.752;9.088;2022-12-24T02:46:00;9.77;;;1.80;;
8183;SDS011;4133;48.752;9.088;2022-12-24T02:48:28;6.77;;;1.70;;
8183;SDS011;4133;48.752;9.088;2022-12-24T02:50:56;4.20;;;1.70;;
8183;SDS011;4133;48.752;9.088;2022-12-24T02:53:22;4.57;;;2.00;;
8183;SDS011;4133;48.752;9.088;2022-12-24T03:03:21;7.80;;;2.07;;
8183;SDS011;4133;48.752;9.088;2022-12-24T03:08:59;10.40;;;2.13;;
8183;SDS011;4133;48.752;9.088;2022-12-24T03:11:22;9.87;;;2.00;;
8183;SDS011;4133;48.752;9.088;2022-12-24T03:13:48;7.33;;;1.90;;
8183;SDS011;4133;48.752;9.088;2022-12-24T03:16:16;8.77;;;2.13;;
8183;SDS011;4133;48.752;9.088;2022-12-24T03:18:46;6.33;;;2.13;;
8183;SDS011;4133;48.752;9.088;2022-12-24T03:21:20;7.27;;;1.77;;
8183;SDS011;4133;48.752;9.088;2022-12-24T03:23:47;8.70;;;1.90;;
8183;SDS011;4133;48.752;9.088;2022-12-24T03:26:13;11.83;;;2.60;;
8183;SDS011;4133;48.752;9.088;2022-12-24T03:31:10;5.63;;;1.70;;
8183;SDS011;4133;48.752;9.088;2022-12-24T03:33:36;6.90;;;1.93;;
8183;SDS011;4133;48.752;9.088;2022-12-24T03:36:03;7.77;;;2.00;;
8183;SDS011;4133;48.752;9.088;2022-12-24T03:38:29;6.23;;;1.80;;
8183;SDS011;4133;48.752;9.088;2022-12-24T03:40:55;7.83;;;1.70;;
8183;SDS011;4133;48.752;9.088;2022-12-24T03:43:21;9.27;;;2.30;;
8183;SDS011;4133;48.752;9.088;2022-12-24T03:45:47;10.53;;;2.07;;
8183;SDS011;4133;48.752;9.088;2022-12-24T03:48:13;7.23;;;2.10;;
8183;SDS011;4133;48.752;9.088;2022-12-24T03:50:39;13.67;;;2.00;;
8183;SDS011;4133;48.752;9.088;2022-12-24T03:53:05;7.43;;;2.43;;
8183;SDS011;4133;48.752;9.088;2022-12-24T03:55:31;10.47;;;2.27;;
8183;SDS011;4133;48.752;9.088;2022-12-24T03:57:57;7.00;;;1.83;;
8183;SDS011;4133;48.752;9.088;2022-12-24T04:00:23;10.20;;;2.20;;
8183;SDS011;4133;48.752;9.088;2022-12-24T04:02:49;8.60;;;2.00;;
8183;SDS011;4133;48.752;9.088;2022-12-24T04:05:16;8.10;;;2.10;;
8183;SDS011;4133;48.752;9.088;2022-12-24T04:07:42;10.50;;;2.30;;
8183;SDS011;4133;48.752;9.088;2022-12-24T04:10:08;7.10;;;1.80;;
8183;SDS011;4133;48.752;9.088;2022-12-24T04:12:35;8.27;;;1.87;;
8183;SDS011;4133;48.752;9.088;2022-12-24T04:15:01;6.63;;;1.80;;
8183;SDS011;4133;48.752;9.088;2022-12-24T04:17:27;10.10;;;2.07;;
8183;SDS011;4133;48.752;9.088;2022-12-24T04:19:53;10.53;;;2.07;;
8183;SDS011;4133;48.752;9.088;2022-12-24T04:22:19;10.40;;;2.10;;
8183;SDS011;4133;48.752;9.088;2022-12-24T04:24:45;8.53;;;2.00;;
8183;SDS011;4133;48.752;9.088;2022-12-24T04:27:15;9.23;;;1.93;;
8183;SDS011;4133;48.752;9.088;2022-12-24T04:29:42;11.07;;;2.17;;
8183;SDS011;4133;48.752;9.088;2022-12-24T04:32:08;5.87;;;1.73;;
8183;SDS011;4133;48.752;9.088;2022-12-24T04:34:34;7.87;;;2.00;;
8183;SDS011;4133;48.752;9.088;2022-12-24T04:37:00;6.83;;;1.60;;
8183;SDS011;4133;48.752;9.088;2022-12-24T04:39:26;8.30;;;1.87;;
8183;SDS011;4133;48.752;9.088;2022-12-24T04:41:52;7.10;;;1.80;;
8183;SDS011;4133;48.752;9.088;2022-12-24T04:44:18;9.27;;;1.87;;
8183;SDS011;4133;48.752;9.088;2022-12-24T04:46:44;7.93;;;1.90;;
8183;SDS011;4133;48.752;9.088;2022-12-24T04:49:10;9.33;;;2.07;;
8183;SDS011;4133;48.752;9.088;2022-12-24T04:51:36;8.40;;;1.73;;
8183;SDS011;4133;48.752;9.088;2022-12-24T04:54:02;11.47;;;1.97;;
8183;SDS011;4133;48.752;9.088;2022-12-24T04:56:29;7.20;;;1.87;;
8183;SDS011;4133;48.752;9.088;2022-12-24T04:58:55;6.53;;;2.20;;
8183;SDS011;4133;48.752;9.088;2022-12-24T05:01:22;6.90;;;1.63;;
8183;SDS011;4133;48.752;9.088;2022-12-24T05:03:49;7.77;;;1.77;;
8183;SDS011;4133;48.752;9.088;2022-12-24T05:06:16;6.67;;;1.70;;
8183;SDS011;4133;48.752;9.088;2022-12-24T05:08:43;6.30;;;1.57;;
8183;SDS011;4133;48.752;9.088;2022-12-24T05:11:09;10.13;;;2.07;;
8183;SDS011;4133;48.752;9.088;2022-12-24T05:13:38;8.10;;;1.70;;
8183;SDS011;4133;48.752;9.088;2022-12-24T05:16:04;8.87;;;2.33;;
8183;SDS011;4133;48.752;9.088;2022-12-24T05:18:30;10.87;;;2.23;;
8183;SDS011;4133;48.752;9.088;2022-12-24T05:20:56;6.43;;;1.70;;
8183;SDS011;4133;48.752;9.088;2022-12-24T05:23:23;5.23;;;1.60;;
8183;SDS011;4133;48.752;9.088;2022-12-24T05:26:12;7.73;;;1.90;;
8183;SDS011;4133;48.752;9.088;2022-12-24T05:29:00;8.75;;;2.33;;
8183;SDS011;4133;48.752;9.088;2022-12-24T05:31:27;7.07;;;1.70;;
8183;SDS011;4133;48.752;9.088;2022-12-24T05:33:53;8.00;;;2.07;;
8183;SDS011;4133;48.752;9.088;2022-12-24T05:36:19;7.40;;;1.70;;
8183;SDS011;4133;48.752;9.088;2022-12-24T05:38:46;8.33;;;2.00;;
8183;SDS011;4133;48.752;9.088;2022-12-24T05:41:12;10.13;;;2.33;;
8183;SDS011;4133;48.752;9.088;2022-12-24T05:43:38;6.63;;;1.90;;
8183;SDS011;4133;48.752;9.088;2022-12-24T05:46:06;6.97;;;1.70;;
8183;SDS011;4133;48.752;9.088;2022-12-24T05:48:32;4.60;;;1.63;;
8183;SDS011;4133;48.752;9.088;2022-12-24T05:50:59;5.63;;;1.47;;
8183;SDS011;4133;48.752;9.088;2022-12-24T05:53:28;10.13;;;2.23;;
8183;SDS011;4133;48.752;9.088;2022-12-24T05:55:53;7.70;;;1.70;;
8183;SDS011;4133;48.752;9.088;2022-12-24T05:58:19;10.43;;;2.20;;
8183;SDS011;4133;48.752;9.088;2022-12-24T06:00:45;7.63;;;1.80;;
8183;SDS011;4133;48.752;9.088;2022-12-24T06:03:11;7.30;;;1.70;;
8183;SDS011;4133;48.752;9.088;2022-12-24T06:05:37;4.20;;;1.50;;
8183;SDS011;4133;48.752;9.088;2022-12-24T06:08:05;7.47;;;2.10;;
8183;SDS011;4133;48.752;9.088;2022-12-24T06:10:31;7.03;;;1.70;;
8183;SDS011;4133;48.752;9.088;2022-12-24T06:12:57;7.33;;;1.73;;
8183;SDS011;4133;48.752;9.088;2022-12-24T06:15:23;8.10;;;1.63;;
8183;SDS011;4133;48.752;9.088;2022-12-24T06:17:49;6.00;;;1.70;;
8183;SDS011;4133;48.752;9.088;2022-12-24T06:20:15;7.97;;;1.80;;
8183;SDS011;4133;48.752;9.088;2022-12-24T06:22:41;8.50;;;2.30;;
8183;SDS011;4133;48.752;9.088;2022-12-24T06:25:07;7.67;;;1.70;;
8183;SDS011;4133;48.752;9.088;2022-12-24T06:27:33;8.87;;;1.97;;
8183;SDS011;4133;48.752;9.088;2022-12-24T06:29:59;9.10;;;2.37;;
8183;SDS011;4133;48.752;9.088;2022-12-24T06:32:25;6.17;;;1.77;;
8183;SDS011;4133;48.752;9.088;2022-12-24T06:34:51;7.23;;;2.00;;
8183;SDS011;4133;48.752;9.088;2022-12-24T06:37:17;7.83;;;1.80;;
8183;SDS011;4133;48.752;9.088;2022-12-24T06:39:46;6.37;;;1.93;;
8183;SDS011;4133;48.752;9.088;2022-12-24T06:42:12;8.83;;;2.67;;
8183;SDS011;4133;48.752;9.088;2022-12-24T06:44:38;7.83;;;1.97;;
8183;SDS011;4133;48.752;9.088;2022-12-24T06:47:05;8.87;;;2.23;;
8183;SDS011;4133;48.752;9.088;2022-12-24T06:49:30;5.67;;;1.57;;
8183;SDS011;4133;48.752;9.088;2022-12-24T06:51:56;6.63;;;1.83;;
8183;SDS011;4133;48.752;9.088;2022-12-24T06:54:22;5.17;;;1.80;;
8183;SDS011;4133;48.752;9.088;2022-12-24T06:56:48;9.13;;;1.83;;
8183;SDS011;4133;48.752;9.088;2022-12-24T06:59:14;8.27;;;2.10;;
8183;SDS011;4133;48.752;9.088;2022-12-24T07:01:40;9.00;;;2.00;;
8183;SDS011;4133;48.752;9.088;2022-12-24T07:04:06;9.70;;;2.20;;
8183;SDS011;4133;48.752;9.088;2022-12-24T07:06:32;10.37;;;1.77;;
8183;SDS011;4133;48.752;9.088;2022-12-24T07:08:58;9.00;;;2.10;;
8183;SDS011;4133;48.752;9.088;2022-12-24T07:11:24;7.53;;;1.90;;
8183;SDS011;4133;48.752;9.088;2022-12-24T07:13:50;9.03;;;2.10;;
8183;SDS011;4133;48.752;9.088;2022-12-24T07:16:16;8.17;;;2.00;;
8183;SDS011;4133;48.752;9.088;2022-12-24T07:18:43;8.13;;;2.17;;
8183;SDS011;4133;48.752;9.088;2022-12-24T07:21:09;9.23;;;2.20;;
8183;SDS011;4133;48.752;9.088;2022-12-24T07:23:35;9.67;;;2.10;;
8183;SDS011;4133;48.752;9.088;2022-12-24T07:26:02;6.03;;;2.10;;
8183;SDS011;4133;48.752;9.088;2022-12-24T07:28:32;9.70;;;2.23;;
8183;SDS011;4133;48.752;9.088;2022-12-24T07:30:58;7.93;;;2.00;;
8183;SDS011;4133;48.752;9.088;2022-12-24T07:33:24;6.53;;;1.90;;
8183;SDS011;4133;48.752;9.088;2022-12-24T07:36:00;9.80;;;3.40;;
8183;SDS011;4133;48.752;9.088;2022-12-24T07:38:27;8.80;;;2.70;;
8183;SDS011;4133;48.752;9.088;2022-12-24T07:40:53;6.87;;;2.27;;
8183;SDS011;4133;48.752;9.088;2022-12-24T07:43:19;9.37;;;2.67;;
8183;SDS011;4133;48.752;9.088;2022-12-24T07:45:45;8.10;;;2.60;;
8183;SDS011;4133;48.752;9.088;2022-12-24T07:48:11;8.10;;;2.00;;
8183;SDS011;4133;48.752;9.088;2022-12-24T07:50:37;7.00;;;2.33;;
8183;SDS011;4133;48.752;9.088;2022-12-24T07:53:03;6.03;;;3.37;;
8183;SDS011;4133;48.752;9.088;2022-12-24T07:55:29;7.83;;;3.00;;
8183;SDS011;4133;48.752;9.088;2022-12-24T07:57:55;8.57;;;3.30;;
8183;SDS011;4133;48.752;9.088;2022-12-24T08:00:21;9.53;;;3.10;;
8183;SDS011;4133;48.752;9.088;2022-12-24T08:02:47;5.83;;;1.87;;
8183;SDS011;4133;48.752;9.088;2022-12-24T08:05:13;9.30;;;2.85;;
8183;SDS011;4133;48.752;9.088;2022-12-24T08:07:39;10.33;;;2.20;;
8183;SDS011;4133;48.752;9.088;2022-12-24T08:10:05;6.93;;;2.20;;
8183;SDS011;4133;48.752;9.088;2022-12-24T08:12:31;9.77;;;2.10;;
8183;SDS011;4133;48.752;9.088;2022-12-24T08:14:57;5.43;;;2.33;;
8183;SDS011;4133;48.752;9.088;2022-12-24T08:17:23;8.43;;;2.20;;
8183;SDS011;4133;48.752;9.088;2022-12-24T08:19:49;9.97;;;2.50;;
8183;SDS011;4133;48.752;9.088;2022-12-24T08:22:15;10.27;;;2.67;;
8183;SDS011;4133;48.752;9.088;2022-12-24T08:24:41;6.37;;;2.37;;
8183;SDS011;4133;48.752;9.088;2022-12-24T08:27:07;6.80;;;2.43;;
8183;SDS011;4133;48.752;9.088;2022-12-24T08:29:49;7.57;;;2.10;;
8183;SDS011;4133;48.752;9.088;2022-12-24T08:32:15;5.43;;;2.37;;
8183;SDS011;4133;48.752;9.088;2022-12-24T08:34:41;5.53;;;2.27;;
8183;SDS011;4133;48.752;9.088;2022-12-24T08:37:07;10.17;;;2.10;;
8183;SDS011;4133;48.752;9.088;2022-12-24T08:39:34;6.50;;;2.20;;
8183;SDS011;4133;48.752;9.088;2022-12-24T08:42:00;7.80;;;2.00;;
8183;SDS011;4133;48.752;9.088;2022-12-24T08:44:26;8.40;;;2.20;;
8183;SDS011;4133;48.752;9.088;2022-12-24T08:46:52;8.43;;;2.00;;
8183;SDS011;4133;48.752;9.088;2022-12-24T08:49:18;8.93;;;2.07;;
8183;SDS011;4133;48.752;9.088;2022-12-24T08:51:44;6.83;;;1.97;;
8183;SDS011;4133;48.752;9.088;2022-12-24T08:54:10;11.03;;;2.40;;
8183;SDS011;4133;48.752;9.088;2022-12-24T08:56:36;7.87;;;2.27;;
8183;SDS011;4133;48.752;9.088;2022-12-24T08:59:02;6.90;;;1.97;;
8183;SDS011;4133;48.752;9.088;2022-12-24T09:01:28;6.73;;;1.90;;
8183;SDS011;4133;48.752;9.088;2022-12-24T09:03:55;8.33;;;2.40;;
8183;SDS011;4133;48.752;9.088;2022-12-24T09:06:21;10.03;;;2.33;;
8183;SDS011;4133;48.752;9.088;2022-12-24T09:08:47;11.87;;;2.83;;
8183;SDS011;4133;48.752;9.088;2022-12-24T09:11:15;9.33;;;2.17;;
8183;SDS011;4133;48.752;9.088;2022-12-24T09:13:41;9.23;;;2.40;;
8183;SDS011;4133;48.752;9.088;2022-12-24T09:16:08;8.73;;;2.10;;
8183;SDS011;4133;48.752;9.088;2022-12-24T09:18:34;11.67;;;2.73;;
8183;SDS011;4133;48.752;9.088;2022-12-24T09:21:07;12.60;;;3.03;;
8183;SDS011;4133;48.752;9.088;2022-12-24T09:23:35;8.87;;;2.27;;
8183;SDS011;4133;48.752;9.088;2022-12-24T09:26:04;7.17;;;2.30;;
8183;SDS011;4133;48.752;9.088;2022-12-24T09:28:35;9.53;;;2.17;;
8183;SDS011;4133;48.752;9.088;2022-12-24T09:31:02;8.43;;;2.17;;
8183;SDS011;4133;48.752;9.088;2022-12-24T09:33:30;10.93;;;2.20;;
8183;SDS011;4133;48.752;9.088;2022-12-24T09:35:56;11.17;;;2.20;;
8183;SDS011;4133;48.752;9.088;2022-12-24T09:38:22;10.17;;;2.40;;
8183;SDS011;4133;48.752;9.088;2022-12-24T09:40:48;7.67;;;2.23;;
8183;SDS011;4133;48.752;9.088;2022-12-24T09:43:17;9.10;;;2.23;;
8183;SDS011;4133;48.752;9.088;2022-12-24T09:45:49;7.57;;;2.30;;
8183;SDS011;4133;48.752;9.088;2022-12-24T09:48:20;13.67;;;3.03;;
8183;SDS011;4133;48.752;9.088;2022-12-24T09:50:58;6.30;;;2.00;;
8183;SDS011;4133;48.752;9.088;2022-12-24T09:55:56;10.27;;;2.23;;
8183;SDS011;4133;48.752;9.088;2022-12-24T09:58:24;11.73;;;2.37;;
8183;SDS011;4133;48.752;9.088;2022-12-24T10:00:51;11.07;;;2.17;;
8183;SDS011;4133;48.752;9.088;2022-12-24T10:03:18;12.80;;;2.17;;
8183;SDS011;4133;48.752;9.088;2022-12-24T10:11:22;11.20;;;2.53;;
8183;SDS011;4133;48.752;9.088;2022-12-24T10:24:57;9.80;;;2.23;;
8183;SDS011;4133;48.752;9.088;2022-12-24T10:27:26;8.57;;;2.47;;
8183;SDS011;4133;48.752;9.088;2022-12-24T10:29:56;12.70;;;3.13;;
8183;SDS011;4133;48.752;9.088;2022-12-24T10:32:24;9.40;;;2.17;;
8183;SDS011;4133;48.752;9.088;2022-12-24T10:34:53;10.53;;;2.30;;
8183;SDS011;4133;48.752;9.088;2022-12-24T10:37:27;7.83;;;2.37;;
8183;SDS011;4133;48.752;9.088;2022-12-24T10:39:54;6.87;;;2.20;;
8183;SDS011;4133;48.752;9.088;2022-12-24T10:42:20;8.97;;;2.87;;
8183;SDS011;4133;48.752;9.088;2022-12-24T10:44:53;8.70;;;2.50;;
8183;SDS011;4133;48.752;9.088;2022-12-24T10:47:20;10.23;;;2.47;;
8183;SDS011;4133;48.752;9.088;2022-12-24T10:50:04;9.50;;;2.27;;
8183;SDS011;4133;48.752;9.088;2022-12-24T10:52:36;10.00;;;2.07;;
8183;SDS011;4133;48.752;9.088;2022-12-24T10:57:33;7.77;;;2.30;;
8183;SDS011;4133;48.752;9.088;2022-12-24T10:59:59;7.97;;;2.13;;
8183;SDS011;4133;48.752;9.088;2022-12-24T11:05:07;7.73;;;1.93;;
8183;SDS011;4133;48.752;9.088;2022-12-24T11:08:04;9.40;;;1.80;;
8183;SDS011;4133;48.752;9.088;2022-12-24T11:10:30;8.67;;;2.20;;
8183;SDS011;4133;48.752;9.088;2022-12-24T11:12:57;8.10;;;2.00;;
8183;SDS011;4133;48.752;9.088;2022-12-24T11:15:26;9.10;;;2.10;;
8183;SDS011;4133;48.752;9.088;2022-12-24T11:20:21;9.03;;;2.10;;
8183;SDS011;4133;48.752;9.088;2022-12-24T11:22:49;6.87;;;2.03;;
8183;SDS011;4133;48.752;9.088;2022-12-24T11:25:23;6.90;;;1.93;;
8183;SDS011;4133;48.752;9.088;2022-12-24T11:33:22;13.40;;;2.33;;
8183;SDS011;4133;48.752;9.088;2022-12-24T11:35:50;9.67;;;1.90;;
8183;SDS011;4133;48.752;9.088;2022-12-24T11:38:27;9.00;;;1.87;;
8183;SDS011;4133;48.752;9.088;2022-12-24T11:41:09;8.40;;;1.93;;
8183;SDS011;4133;48.752;9.088;2022-12-24T11:43:38;6.03;;;1.77;;
8183;SDS011;4133;48.752;9.088;2022-12-24T11:46:42;9.77;;;2.07;;
8183;SDS011;4133;48.752;9.088;2022-12-24T11:49:43;10.87;;;1.93;;
8183;SDS011;4133;48.752;9.088;2022-12-24T11:54:30;12.00;;;2.40;;
8183;SDS011;4133;48.752;9.088;2022-12-24T11:56:57;7.03;;;2.40;;
8183;SDS011;4133;48.752;9.088;2022-12-24T11:59:33;8.17;;;1.93;;
8183;SDS011;4133;48.752;9.088;2022-12-24T12:04:40;9.70;;;2.07;;
8183;SDS011;4133;48.752;9.088;2022-12-24T12:07:13;12.83;;;2.57;;
8183;SDS011;4133;48.752;9.088;2022-12-24T12:09:49;8.33;;;2.30;;
8183;SDS011;4133;48.752;9.088;2022-12-24T12:12:19;7.57;;;2.33;;
8183;SDS011;4133;48.752;9.088;2022-12-24T12:14:47;9.97;;;2.27;;
8183;SDS011;4133;48.752;9.088;2022-12-24T12:19:42;11.57;;;2.50;;
8183;SDS011;4133;48.752;9.088;2022-12-24T12:22:18;8.37;;;2.27;;
8183;SDS011;4133;48.752;9.088;2022-12-24T12:24:47;8.67;;;2.43;;
8183;SDS011;4133;48.752;9.088;2022-12-24T12:30:20;7.57;;;2.23;;
8183;SDS011;4133;48.752;9.088;2022-12-24T12:32:56;9.13;;;2.30;;
8183;SDS011;4133;48.752;9.088;2022-12-24T12:38:35;9.40;;;2.23;;
8183;SDS011;4133;48.752;9.088;2022-12-24T12:43:12;10.63;;;2.93;;
8183;SDS011;4133;48.752;9.088;2022-12-24T12:48:32;9.93;;;2.97;;
8183;SDS011;4133;48.752;9.088;2022-12-24T12:51:06;8.70;;;2.27;;
8183;SDS011;4133;48.752;9.088;2022-12-24T12:58:46;9.63;;;2.43;;
8183;SDS011;4133;48.752;9.088;2022-12-24T13:01:28;5.73;;;2.03;;
8183;SDS011;4133;48.752;9.088;2022-12-24T13:14:54;12.33;;;2.37;;
8183;SDS011;4133;48.752;9.088;2022-12-24T13:22:36;6.30;;;1.93;;
8183;SDS011;4133;48.752;9.088;2022-12-24T13:25:02;5.83;;;1.90;;
8183;SDS011;4133;48.752;9.088;2022-12-24T13:27:29;6.23;;;2.00;;
8183;SDS011;4133;48.752;9.088;2022-12-24T13:29:57;8.67;;;1.87;;
8183;SDS011;4133;48.752;9.088;2022-12-24T13:34:52;8.70;;;2.53;;
8183;SDS011;4133;48.752;9.088;2022-12-24T13:37:19;11.40;;;2.10;;
8183;SDS011;4133;48.752;9.088;2022-12-24T13:55:53;7.87;;;2.10;;
8183;SDS011;4133;48.752;9.088;2022-12-24T13:58:20;11.47;;;2.53;;
8183;SDS011;4133;48.752;9.088;2022-12-24T14:03:41;8.33;;;2.40;;
8183;SDS011;4133;48.752;9.088;2022-12-24T14:06:12;8.60;;;2.33;;
8183;SDS011;4133;48.752;9.088;2022-12-24T14:08:46;8.57;;;2.50;;
8183;SDS011;4133;48.752;9.088;2022-12-24T14:11:20;9.93;;;2.40;;
8183;SDS011;4133;48.752;9.088;2022-12-24T14:18:42;9.47;;;2.63;;
8183;SDS011;4133;48.752;9.088;2022-12-24T14:21:16;8.30;;;2.53;;
8183;SDS011;4133;48.752;9.088;2022-12-24T14:23:54;8.90;;;2.40;;
8183;SDS011;4133;48.752;9.088;2022-12-24T14:26:22;10.00;;;2.40;;
8183;SDS011;4133;48.752;9.088;2022-12-24T14:31:52;11.40;;;2.70;;
8183;SDS011;4133;48.752;9.088;2022-12-24T14:34:19;11.17;;;2.47;;
8183;SDS011;4133;48.752;9.088;2022-12-24T14:36:50;6.77;;;2.10;;
8183;SDS011;4133;48.752;9.088;2022-12-24T14:42:05;9.47;;;2.13;;
8183;SDS011;4133;48.752;9.088;2022-12-24T14:44:38;9.30;;;2.20;;
8183;SDS011;4133;48.752;9.088;2022-12-24T14:52:34;10.60;;;2.43;;
8183;SDS011;4133;48.752;9.088;2022-12-24T14:57:48;10.47;;;2.30;;
8183;SDS011;4133;48.752;9.088;2022-12-24T15:00:18;8.67;;;2.70;;
8183;SDS011;4133;48.752;9.088;2022-12-24T15:02:45;9.83;;;2.73;;
8183;SDS011;4133;48.752;9.088;2022-12-24T15:05:19;9.97;;;3.00;;
8183;SDS011;4133;48.752;9.088;2022-12-24T15:07:46;6.17;;;2.60;;
8183;SDS011;4133;48.752;9.088;2022-12-24T15:10:22;6.27;;;2.20;;
8183;SDS011;4133;48.752;9.088;2022-12-24T15:12:49;6.73;;;2.40;;
8183;SDS011;4133;48.752;9.088;2022-12-24T15:15:16;8.73;;;2.13;;
8183;SDS011;4133;48.752;9.088;2022-12-24T15:17:43;6.77;;;2.10;;
8183;SDS011;4133;48.752;9.088;2022-12-24T15:20:14;9.83;;;2.43;;
8183;SDS011;4133;48.752;9.088;2022-12-24T15:22:41;9.30;;;2.50;;
8183;SDS011;4133;48.752;9.088;2022-12-24T15:28:13;10.65;;;2.78;;
8183;SDS011;4133;48.752;9.088;2022-12-24T15:30:40;9.73;;;2.87;;
8183;SDS011;4133;48.752;9.088;2022-12-24T15:33:08;8.17;;;2.60;;
8183;SDS011;4133;48.752;9.088;2022-12-24T15:38:22;9.63;;;2.50;;
8183;SDS011;4133;48.752;9.088;2022-12-24T15:40:49;7.60;;;2.50;;
8183;SDS011;4133;48.752;9.088;2022-12-24T15:43:15;8.33;;;2.67;;
8183;SDS011;4133;48.752;9.088;2022-12-24T15:45:42;8.43;;;2.63;;
8183;SDS011;4133;48.752;9.088;2022-12-24T15:48:17;10.17;;;3.00;;
8183;SDS011;4133;48.752;9.088;2022-12-24T15:50:48;12.33;;;3.07;;
8183;SDS011;4133;48.752;9.088;2022-12-24T15:53:18;9.90;;;2.90;;
8183;SDS011;4133;48.752;9.088;2022-12-24T15:55:58;8.57;;;1.93;;
8183;SDS011;4133;48.752;9.088;2022-12-24T15:58:25;10.00;;;2.07;;
8183;SDS011;4133;48.752;9.088;2022-12-24T16:00:59;7.30;;;2.47;;
8183;SDS011;4133;48.752;9.088;2022-12-24T16:03:25;6.43;;;2.00;;
8183;SDS011;4133;48.752;9.088;2022-12-24T16:05:58;7.80;;;2.00;;
8183;SDS011;4133;48.752;9.088;2022-12-24T16:08:25;9.20;;;3.37;;
8183;SDS011;4133;48.752;9.088;2022-12-24T16:11:05;8.37;;;2.07;;
8183;SDS011;4133;48.752;9.088;2022-12-24T16:13:34;8.80;;;2.00;;
8183;SDS011;4133;48.752;9.088;2022-12-24T16:16:04;8.20;;;1.70;;
8183;SDS011;4133;48.752;9.088;2022-12-24T16:18:35;7.17;;;1.90;;
8183;SDS011;4133;48.752;9.088;2022-12-24T16:21:02;6.53;;;2.00;;
8183;SDS011;4133;48.752;9.088;2022-12-24T16:23:36;9.63;;;2.20;;
8183;SDS011;4133;48.752;9.088;2022-12-24T16:26:02;8.93;;;2.80;;
8183;SDS011;4133;48.752;9.088;2022-12-24T16:28:28;9.17;;;3.27;;
8183;SDS011;4133;48.752;9.088;2022-12-24T16:30:55;8.60;;;2.37;;
8183;SDS011;4133;48.752;9.088;2022-12-24T16:33:21;9.90;;;2.40;;
8183;SDS011;4133;48.752;9.088;2022-12-24T16:35:48;9.67;;;2.47;;
8183;SDS011;4133;48.752;9.088;2022-12-24T16:38:14;11.40;;;2.50;;
8183;SDS011;4133;48.752;9.088;2022-12-24T16:40:41;7.27;;;2.50;;
8183;SDS011;4133;48.752;9.088;2022-12-24T16:43:07;7.13;;;2.37;;
8183;SDS011;4133;48.752;9.088;2022-12-24T16:45:52;9.37;;;2.23;;
8183;SDS011;4133;48.752;9.088;2022-12-24T16:48:23;10.03;;;2.50;;
8183;SDS011;4133;48.752;9.088;2022-12-24T16:50:49;8.13;;;2.40;;
8183;SDS011;4133;48.752;9.088;2022-12-24T16:53:16;8.37;;;2.93;;
8183;SDS011;4133;48.752;9.088;2022-12-24T16:55:43;8.63;;;3.73;;
8183;SDS011;4133;48.752;9.088;2022-12-24T16:58:13;10.30;;;2.70;;
8183;SDS011;4133;48.752;9.088;2022-12-24T17:00:39;8.10;;;2.80;;
8183;SDS011;4133;48.752;9.088;2022-12-24T17:03:05;12.43;;;4.17;;
8183;SDS011;4133;48.752;9.088;2022-12-24T17:05:32;13.67;;;6.07;;
8183;SDS011;4133;48.752;9.088;2022-12-24T17:07:58;10.93;;;4.60;;
8183;SDS011;4133;48.752;9.088;2022-12-24T17:10:25;10.07;;;4.97;;
8183;SDS011;4133;48.752;9.088;2022-12-24T17:12:51;9.00;;;3.00;;
8183;SDS011;4133;48.752;9.088;2022-12-24T17:15:17;9.67;;;2.73;;
8183;SDS011;4133;48.752;9.088;2022-12-24T17:17:43;7.93;;;2.93;;
8183;SDS011;4133;48.752;9.088;2022-12-24T17:20:09;8.47;;;2.70;;
8183;SDS011;4133;48.752;9.088;2022-12-24T17:22:47;7.83;;;3.30;;
8183;SDS011;4133;48.752;9.088;2022-12-24T17:25:13;13.93;;;6.20;;
8183;SDS011;4133;48.752;9.088;2022-12-24T17:27:46;13.10;;;4.87;;
8183;SDS011;4133;48.752;9.088;2022-12-24T17:30:12;12.53;;;3.40;;
8183;SDS011;4133;48.752;9.088;2022-12-24T17:32:38;9.77;;;2.50;;
8183;SDS011;4133;48.752;9.088;2022-12-24T17:35:04;8.90;;;2.67;;
8183;SDS011;4133;48.752;9.088;2022-12-24T17:37:30;5.10;;;2.20;;
8183;SDS011;4133;48.752;9.088;2022-12-24T17:39:56;9.27;;;3.67;;
8183;SDS011;4133;48.752;9.088;2022-12-24T17:42:22;8.10;;;3.00;;
8183;SDS011;4133;48.752;9.088;2022-12-24T17:44:48;10.27;;;3.57;;